createdAt,value
2018-08-23T00:01:34.416Z,49.85
2018-08-23T00:04:05.988Z,50.63
2018-08-23T00:06:36.267Z,50.40
2018-08-23T00:09:08.537Z,50.73
2018-08-23T00:11:41.932Z,51.00
2018-08-23T00:14:11.969Z,51.69
2018-08-23T00:16:44.829Z,52.00
2018-08-23T00:19:14.820Z,51.55
2018-08-23T00:21:47.460Z,51.62
2018-08-23T00:24:18.438Z,51.58
2018-08-23T00:26:57.346Z,52.00
2018-08-23T00:29:34.401Z,52.39
2018-08-23T00:32:06.059Z,52.31
2018-08-23T00:34:36.919Z,52.51
2018-08-23T00:37:07.359Z,51.94
2018-08-23T00:39:37.203Z,52.74
2018-08-23T00:42:10.036Z,53.65
2018-08-23T00:44:59.128Z,55.30
2018-08-23T00:47:33.219Z,55.67
2018-08-23T00:50:03.020Z,56.11
2018-08-23T00:52:43.722Z,55.31
2018-08-23T00:55:17.900Z,55.81
2018-08-23T00:57:47.863Z,57.21
2018-08-23T01:00:19.418Z,56.64
2018-08-23T01:02:54.516Z,57.16
2018-08-23T01:05:29.391Z,57.97
2018-08-23T01:07:59.114Z,57.80
2018-08-23T01:10:28.842Z,57.66
2018-08-23T01:13:01.544Z,57.93
2018-08-23T01:15:32.598Z,57.97
2018-08-23T01:18:11.968Z,57.67
2018-08-23T01:20:42.536Z,58.69
2018-08-23T01:23:12.301Z,58.94
2018-08-23T01:25:44.577Z,59.51
2018-08-23T01:28:14.599Z,58.87
2018-08-23T01:30:44.903Z,59.12
2018-08-23T01:33:17.934Z,60.00
2018-08-23T01:35:49.018Z,60.43
2018-08-23T01:38:19.090Z,59.58
2018-08-23T01:40:48.938Z,60.84
2018-08-23T01:43:18.804Z,59.99
2018-08-23T01:45:48.587Z,59.87
2018-08-23T01:48:18.265Z,60.16
2018-08-23T01:50:47.956Z,60.00
2018-08-23T01:53:19.828Z,60.17
2018-08-23T01:55:49.551Z,60.79
2018-08-23T01:58:19.631Z,60.94
2018-08-23T02:00:59.748Z,60.47
2018-08-23T02:03:29.535Z,60.70
2018-08-23T02:05:59.240Z,61.34
2018-08-23T02:08:29.288Z,62.41
2018-08-23T02:10:59.013Z,63.09
2018-08-23T02:13:29.411Z,62.57
2018-08-23T02:16:02.243Z,62.90
2018-08-23T02:18:32.556Z,63.93
2018-08-23T02:21:08.203Z,64.21
2018-08-23T02:23:46.569Z,64.71
2018-08-23T02:26:16.304Z,64.99
2018-08-23T02:28:47.740Z,63.83
2018-08-23T02:31:17.588Z,64.23
2018-08-23T02:33:47.328Z,64.24
2018-08-23T02:36:17.419Z,63.39
2018-08-23T02:38:49.463Z,63.53
2018-08-23T02:41:19.179Z,63.48
2018-08-23T02:43:48.884Z,63.55
2018-08-23T02:46:19.142Z,63.53
2018-08-23T02:48:48.861Z,63.13
2018-08-23T02:51:18.616Z,63.71
2018-08-23T02:53:49.264Z,63.43
2018-08-23T02:56:20.889Z,63.13
2018-08-23T02:58:56.417Z,63.58
2018-08-23T03:01:27.876Z,63.36
2018-08-23T03:04:16.871Z,63.53
2018-08-23T03:06:51.148Z,63.39
2018-08-23T03:09:22.957Z,63.28
2018-08-23T03:11:53.857Z,63.43
2018-08-23T03:14:24.543Z,63.43
2018-08-23T03:17:30.136Z,63.61
2018-08-23T03:20:01.379Z,64.27
2018-08-23T03:22:32.317Z,64.30
2018-08-23T03:25:03.825Z,64.12
2018-08-23T03:27:33.609Z,64.28
2018-08-23T03:30:04.267Z,64.84
2018-08-23T03:32:33.944Z,64.80
2018-08-23T03:35:03.648Z,64.84
2018-08-23T03:37:33.365Z,64.77
2018-08-23T03:40:03.136Z,64.74
2018-08-23T03:42:32.876Z,65.56
2018-08-23T03:45:02.863Z,65.91
2018-08-23T03:47:38.384Z,65.64
2018-08-23T03:50:09.336Z,66.45
2018-08-23T03:52:42.500Z,65.95
2018-08-23T03:55:12.309Z,66.08
2018-08-23T03:57:47.092Z,65.24
2018-08-23T04:00:16.885Z,66.71
2018-08-23T04:02:46.555Z,66.00
2018-08-23T04:05:19.228Z,66.32
2018-08-23T04:07:48.892Z,66.40
2018-08-23T04:10:18.557Z,66.58
2018-08-23T04:12:48.268Z,67.18
2018-08-23T04:15:31.312Z,66.69
2018-08-23T04:18:06.099Z,67.58
2018-08-23T04:20:35.932Z,67.22
2018-08-23T04:23:05.644Z,67.18
2018-08-23T04:25:35.400Z,67.07
2018-08-23T04:28:05.117Z,66.94
2018-08-23T04:30:34.795Z,67.42
2018-08-23T04:33:04.676Z,67.13
2018-08-23T04:35:34.476Z,67.14
2018-08-23T04:38:04.192Z,67.26
2018-08-23T04:40:33.981Z,67.82
2018-08-23T04:43:03.824Z,67.47
2018-08-23T04:45:34.743Z,67.26
2018-08-23T04:48:06.576Z,67.39
2018-08-23T04:50:36.943Z,66.94
2018-08-23T04:53:06.738Z,67.39
2018-08-23T04:55:36.489Z,66.82
2018-08-23T04:58:06.860Z,66.86
2018-08-23T05:00:36.635Z,66.99
2018-08-23T05:03:06.623Z,67.65
2018-08-23T05:05:36.687Z,67.97
2018-08-23T05:08:06.431Z,67.44
2018-08-23T05:10:36.288Z,68.16
2018-08-23T05:13:05.989Z,68.05
2018-08-23T05:15:35.728Z,68.10
2018-08-23T05:18:05.480Z,68.03
2018-08-23T05:20:35.464Z,67.46
2018-08-23T05:23:06.025Z,68.24
2018-08-23T05:25:35.709Z,67.52
2018-08-23T05:28:18.376Z,67.40
2018-08-23T05:30:49.308Z,66.37
2018-08-23T05:33:22.120Z,66.64
2018-08-23T05:35:51.791Z,66.62
2018-08-23T05:38:21.495Z,66.88
2018-08-23T05:41:18.124Z,66.49
2018-08-23T05:43:53.404Z,66.90
2018-08-23T05:46:23.401Z,67.15
2018-08-23T05:48:53.618Z,66.61
2018-08-23T05:51:23.803Z,66.42
2018-08-23T05:53:55.393Z,66.77
2018-08-23T05:56:25.128Z,66.88
2018-08-23T05:58:59.428Z,67.02
2018-08-23T06:01:29.156Z,66.37
2018-08-23T06:03:58.830Z,66.12
2018-08-23T06:06:28.871Z,66.78
2018-08-23T06:09:00.942Z,66.69
2018-08-23T06:11:30.709Z,66.64
2018-08-23T06:14:01.465Z,65.31
2018-08-23T06:16:31.753Z,64.13
2018-08-23T06:19:07.921Z,66.02
2018-08-23T06:21:37.670Z,66.13
2018-08-23T06:24:08.540Z,65.93
2018-08-23T06:26:46.348Z,66.35
2018-08-23T06:29:18.495Z,65.95
2018-08-23T06:31:57.522Z,65.61
2018-08-23T06:34:28.908Z,65.81
2018-08-23T06:36:58.627Z,65.08
2018-08-23T06:39:28.393Z,64.42
2018-08-23T06:41:59.467Z,64.93
2018-08-23T06:44:39.351Z,64.73
2018-08-23T06:47:09.848Z,63.60
2018-08-23T06:49:39.673Z,63.19
2018-08-23T06:52:11.706Z,63.83
2018-08-23T06:54:42.076Z,62.41
2018-08-23T06:57:12.155Z,62.64
2018-08-23T06:59:42.300Z,63.95
2018-08-23T07:02:12.392Z,62.52
2018-08-23T07:04:42.252Z,63.55
2018-08-23T07:07:16.929Z,62.76
2018-08-23T07:09:46.673Z,61.33
2018-08-23T07:12:21.506Z,61.72
2018-08-23T07:14:51.768Z,60.30
2018-08-23T07:17:27.681Z,61.15
2018-08-23T07:20:00.464Z,59.51
2018-08-23T07:22:30.635Z,60.57
2018-08-23T07:25:00.674Z,60.61
2018-08-23T07:27:30.767Z,61.50
2018-08-23T07:30:01.058Z,61.31
2018-08-23T07:32:31.479Z,60.39
2018-08-23T07:35:06.378Z,59.23
2018-08-23T07:37:37.257Z,59.11
2018-08-23T07:40:12.235Z,59.45
2018-08-23T07:42:43.131Z,60.60
2018-08-23T07:45:13.180Z,58.51
2018-08-23T07:47:51.792Z,60.00
2018-08-23T07:50:22.224Z,58.79
2018-08-23T07:52:53.321Z,58.85
2018-08-23T07:55:23.415Z,59.06
2018-08-23T07:57:53.158Z,58.30
2018-08-23T08:00:31.692Z,59.15
2018-08-23T08:03:01.702Z,59.23
2018-08-23T08:05:33.352Z,57.67
2018-08-23T08:08:03.321Z,58.30
2018-08-23T08:10:35.923Z,57.46
2018-08-23T08:13:06.104Z,56.62
2018-08-23T08:15:35.811Z,57.08
2018-08-23T08:18:08.389Z,56.20
2018-08-23T08:20:38.172Z,56.46
2018-08-23T08:23:07.904Z,55.83
2018-08-23T08:25:37.649Z,56.42
2018-08-23T08:28:14.203Z,55.79
2018-08-23T08:30:45.470Z,55.00
2018-08-23T08:33:20.420Z,55.17
2018-08-23T08:35:51.110Z,53.78
2018-08-23T08:38:20.812Z,53.74
2018-08-23T08:40:52.209Z,54.54
2018-08-23T08:43:21.915Z,53.96
2018-08-23T08:45:55.839Z,53.56
2018-08-23T08:48:31.039Z,53.63
2018-08-23T08:51:21.157Z,53.87
2018-08-23T08:53:51.211Z,52.83
2018-08-23T08:56:32.432Z,52.74
2018-08-23T08:59:02.165Z,51.46
2018-08-23T09:01:32.170Z,51.19
2018-08-23T09:04:02.212Z,51.59
2018-08-23T09:06:50.424Z,51.43
2018-08-23T09:09:30.027Z,50.69
2018-08-23T09:12:01.479Z,50.72
2018-08-23T09:14:31.208Z,50.26
2018-08-23T09:17:02.704Z,51.21
2018-08-23T09:19:43.493Z,51.24
2018-08-23T09:22:19.280Z,50.23
2018-08-23T09:24:49.053Z,50.73
2018-08-23T09:27:19.448Z,50.62
2018-08-23T09:29:49.512Z,49.15
2018-08-23T09:32:24.749Z,49.68
2018-08-23T09:35:00.837Z,48.96
2018-08-23T09:37:34.919Z,48.82
2018-08-23T09:40:05.104Z,48.90
2018-08-23T09:42:36.143Z,48.70
2018-08-23T09:45:12.744Z,48.55
2018-08-23T09:47:42.815Z,47.83
2018-08-23T09:50:12.636Z,48.59
2018-08-23T09:52:44.856Z,47.09
2018-08-23T09:55:16.284Z,47.29
2018-08-23T09:57:46.360Z,45.74
2018-08-23T10:00:21.760Z,46.80
2018-08-23T10:02:56.764Z,46.06
2018-08-23T10:05:31.640Z,46.88
2018-08-23T10:08:06.528Z,45.90
2018-08-23T10:10:41.331Z,46.50
2018-08-23T10:13:16.148Z,45.03
2018-08-23T10:16:48.655Z,44.90
2018-08-23T10:19:23.864Z,45.63
2018-08-23T10:21:58.883Z,44.76
2018-08-23T10:24:33.112Z,45.07
2018-08-23T10:27:02.841Z,44.04
2018-08-23T10:29:32.562Z,44.60
2018-08-23T10:32:02.415Z,44.29
2018-08-23T10:34:32.241Z,44.22
2018-08-23T10:37:01.953Z,44.01
2018-08-23T10:39:32.050Z,43.67
2018-08-23T10:42:01.764Z,43.22
2018-08-23T10:44:32.440Z,44.36
2018-08-23T10:47:02.161Z,44.67
2018-08-23T10:49:31.871Z,44.47
2018-08-23T10:52:01.860Z,44.74
2018-08-23T10:54:32.072Z,45.74
2018-08-23T10:57:01.769Z,44.85
2018-08-23T10:59:32.185Z,44.23
2018-08-23T11:02:01.885Z,44.99
2018-08-23T11:04:31.630Z,43.78
2018-08-23T11:07:01.328Z,44.26
2018-08-23T11:09:36.350Z,43.76
2018-08-23T11:12:09.495Z,42.24
2018-08-23T11:14:41.539Z,42.56
2018-08-23T11:17:16.490Z,43.09
2018-08-23T11:19:51.551Z,42.72
2018-08-23T11:22:25.412Z,43.34
2018-08-23T11:24:55.105Z,42.52
2018-08-23T11:27:25.304Z,42.67
2018-08-23T11:29:55.018Z,42.13
2018-08-23T11:32:25.161Z,42.56
2018-08-23T11:34:54.923Z,41.71
2018-08-23T11:37:24.988Z,42.29
2018-08-23T11:39:54.980Z,42.53
2018-08-23T11:42:25.073Z,42.66
2018-08-23T11:44:55.064Z,42.42
2018-08-23T11:47:24.889Z,41.96
2018-08-23T11:49:54.571Z,41.50
2018-08-23T11:52:24.336Z,41.49
2018-08-23T11:54:54.035Z,41.77
2018-08-23T11:57:24.151Z,40.56
2018-08-23T11:59:54.205Z,40.32
2018-08-23T12:02:23.883Z,39.27
2018-08-23T12:04:53.593Z,40.91
2018-08-23T12:07:23.579Z,42.04
2018-08-23T12:09:53.409Z,42.08
2018-08-23T12:12:23.187Z,40.53
2018-08-23T12:14:57.072Z,40.71
2018-08-23T12:17:26.820Z,39.47
2018-08-23T12:19:56.985Z,39.93
2018-08-23T12:22:31.764Z,39.32
2018-08-23T12:25:02.362Z,39.46
2018-08-23T12:27:32.409Z,39.79
2018-08-23T12:30:05.132Z,39.10
2018-08-23T12:32:34.792Z,38.94
2018-08-23T12:35:04.877Z,39.69
2018-08-23T12:37:39.830Z,39.61
2018-08-23T12:40:14.548Z,39.63
2018-08-23T12:42:50.480Z,39.68
2018-08-23T12:45:20.321Z,40.47
2018-08-23T12:47:50.447Z,39.14
2018-08-23T12:50:20.560Z,38.66
2018-08-23T12:52:50.283Z,38.60
2018-08-23T12:55:20.365Z,39.21
2018-08-23T12:57:50.099Z,38.26
2018-08-23T13:00:20.015Z,37.79
2018-08-23T13:02:50.139Z,37.46
2018-08-23T13:05:20.096Z,37.08
2018-08-23T13:07:49.784Z,37.09
2018-08-23T13:10:19.597Z,37.12
2018-08-23T13:12:49.321Z,35.18
2018-08-23T13:15:19.700Z,36.24
2018-08-23T13:17:49.754Z,35.57
2018-08-23T13:20:19.929Z,36.43
2018-08-23T13:22:49.672Z,35.41
2018-08-23T13:25:19.484Z,35.32
2018-08-23T13:27:49.430Z,34.64
2018-08-23T13:30:19.633Z,35.40
2018-08-23T13:32:49.348Z,34.63
2018-08-23T13:35:19.127Z,34.93
2018-08-23T13:37:48.847Z,33.99
2018-08-23T13:40:19.733Z,34.88
2018-08-23T13:42:49.964Z,35.26
2018-08-23T13:45:19.683Z,34.27
2018-08-23T13:47:49.515Z,34.02
2018-08-23T13:50:19.627Z,35.25
2018-08-23T13:52:49.441Z,35.31
2018-08-23T13:55:19.465Z,35.36
2018-08-23T13:57:49.287Z,35.21
2018-08-23T14:00:29.372Z,35.24
2018-08-23T14:03:00.314Z,33.82
2018-08-23T14:05:30.455Z,34.06
2018-08-23T14:08:00.496Z,34.35
2018-08-23T14:10:30.217Z,34.67
2018-08-23T14:12:59.921Z,33.99
2018-08-23T14:15:34.897Z,34.96
2018-08-23T14:18:04.944Z,34.45
2018-08-23T14:20:34.690Z,34.61
2018-08-23T14:23:04.404Z,33.77
2018-08-23T14:25:34.153Z,33.59
2018-08-23T14:28:03.840Z,34.17
2018-08-23T14:30:33.559Z,34.46
2018-08-23T14:33:03.330Z,34.59
2018-08-23T14:35:33.279Z,36.03
2018-08-23T14:38:02.966Z,35.32
2018-08-23T14:40:32.684Z,34.69
2018-08-23T14:43:02.958Z,34.71
2018-08-23T14:45:33.791Z,35.30
2018-08-23T14:48:08.905Z,33.37
2018-08-23T14:50:38.676Z,34.84
2018-08-23T14:53:08.926Z,34.82
2018-08-23T14:55:44.173Z,35.69
2018-08-23T14:58:14.414Z,35.90
2018-08-23T15:00:44.629Z,36.67
2018-08-23T15:03:15.204Z,35.85
2018-08-23T15:05:45.261Z,36.55
2018-08-23T15:08:14.953Z,35.79
2018-08-23T15:10:44.708Z,35.83
2018-08-23T15:13:14.615Z,36.34
2018-08-23T15:15:49.579Z,36.57
2018-08-23T15:18:20.836Z,35.67
2018-08-23T15:20:51.310Z,37.04
2018-08-23T15:23:21.121Z,37.48
2018-08-23T15:25:50.852Z,36.50
2018-08-23T15:28:20.539Z,36.97
2018-08-23T15:30:50.281Z,36.88
2018-08-23T15:33:20.636Z,37.26
2018-08-23T15:35:50.360Z,37.46
2018-08-23T15:38:20.060Z,37.33
2018-08-23T15:40:49.790Z,37.10
2018-08-23T15:43:20.376Z,37.37
2018-08-23T15:45:50.140Z,37.51
2018-08-23T15:48:19.873Z,37.91
2018-08-23T15:50:50.378Z,38.28
2018-08-23T15:53:20.487Z,39.00
2018-08-23T15:55:50.338Z,38.34
2018-08-23T15:58:20.262Z,37.98
2018-08-23T16:00:50.013Z,38.66
2018-08-23T16:03:19.739Z,38.23
2018-08-23T16:05:49.541Z,39.06
2018-08-23T16:08:19.245Z,37.16
2018-08-23T16:10:48.968Z,39.24
2018-08-23T16:13:18.776Z,38.46
2018-08-23T16:15:51.277Z,39.60
2018-08-23T16:19:26.877Z,38.79
2018-08-23T16:21:57.740Z,39.69
2018-08-23T16:24:28.346Z,38.99
2018-08-23T16:27:02.889Z,40.23
2018-08-23T16:29:32.640Z,38.61
2018-08-23T16:32:02.441Z,39.68
2018-08-23T16:34:32.440Z,39.05
2018-08-23T16:37:02.179Z,39.90
2018-08-23T16:39:31.884Z,40.36
2018-08-23T16:42:01.740Z,39.24
2018-08-23T16:44:31.419Z,40.22
2018-08-23T16:47:01.139Z,39.93
2018-08-23T16:49:30.864Z,40.43
2018-08-23T16:52:00.540Z,40.94
2018-08-23T16:54:30.257Z,39.86
2018-08-23T16:56:59.972Z,40.25
2018-08-23T16:59:29.665Z,40.56
2018-08-23T17:01:59.388Z,39.93
2018-08-23T17:04:34.060Z,40.14
2018-08-23T17:07:03.769Z,40.45
2018-08-23T17:09:33.454Z,40.60
2018-08-23T17:12:03.226Z,41.66
2018-08-23T17:14:32.900Z,41.12
2018-08-23T17:17:07.780Z,41.69
2018-08-23T17:19:37.896Z,42.00
2018-08-23T17:22:07.639Z,40.87
2018-08-23T17:24:37.535Z,41.43
2018-08-23T17:27:07.530Z,41.51
2018-08-23T17:29:37.728Z,41.85
2018-08-23T17:32:08.335Z,42.17
2018-08-23T17:34:38.151Z,41.37
2018-08-23T17:37:07.851Z,42.04
2018-08-23T17:39:37.968Z,42.10
2018-08-23T17:42:07.767Z,43.33
2018-08-23T17:44:37.488Z,43.54
2018-08-23T17:47:07.508Z,43.29
2018-08-23T17:49:37.279Z,43.12
2018-08-23T17:52:07.088Z,43.14
2018-08-23T17:54:36.801Z,42.57
2018-08-23T17:57:06.882Z,43.62
2018-08-23T17:59:36.884Z,43.25
2018-08-23T18:02:06.816Z,43.49
2018-08-23T18:04:36.505Z,43.16
2018-08-23T18:07:06.496Z,44.04
2018-08-23T18:09:36.243Z,44.73
2018-08-23T18:12:05.993Z,43.92
2018-08-23T18:14:35.688Z,44.69
2018-08-23T18:17:05.457Z,44.69
2018-08-23T18:19:35.152Z,44.19
2018-08-23T18:22:05.422Z,43.95
2018-08-23T18:24:35.188Z,44.81
2018-08-23T18:27:05.234Z,44.47
2018-08-23T18:29:35.040Z,44.63
2018-08-23T18:32:04.950Z,45.51
2018-08-23T18:34:34.667Z,45.59
2018-08-23T18:37:04.672Z,45.29
2018-08-23T18:39:35.100Z,46.23
2018-08-23T18:42:04.831Z,46.66
2018-08-23T18:44:34.547Z,47.52
2018-08-23T18:47:04.898Z,47.40
2018-08-23T18:49:34.671Z,46.79
2018-08-23T18:52:04.519Z,47.60
2018-08-23T18:54:34.515Z,47.23
2018-08-23T18:57:04.812Z,47.35
2018-08-23T18:59:34.852Z,48.50
2018-08-23T19:02:04.649Z,48.31
2018-08-23T19:04:34.476Z,48.39
2018-08-23T19:07:04.565Z,49.19
2018-08-23T19:09:34.636Z,49.00
2018-08-23T19:12:04.915Z,49.71
2018-08-23T19:14:34.660Z,49.51
2018-08-23T19:17:09.500Z,49.81
2018-08-23T19:19:39.380Z,49.85
2018-08-23T19:22:10.217Z,49.93
2018-08-23T19:24:40.293Z,50.32
2018-08-23T19:27:09.997Z,49.71
2018-08-23T19:29:39.712Z,51.04
2018-08-23T19:32:09.445Z,50.40
2018-08-23T19:34:39.124Z,51.07
2018-08-23T19:37:08.979Z,50.88
2018-08-23T19:39:38.920Z,51.35
2018-08-23T19:42:08.780Z,51.39
2018-08-23T19:44:43.637Z,51.24
2018-08-23T19:47:18.435Z,51.88
2018-08-23T19:49:52.319Z,51.85
2018-08-23T19:52:22.444Z,52.25
2018-08-23T19:54:52.663Z,52.30
2018-08-23T19:57:22.573Z,52.71
2018-08-23T19:59:52.254Z,52.40
2018-08-23T20:02:21.974Z,52.49
2018-08-23T20:04:52.344Z,51.92
2018-08-23T20:07:22.446Z,53.10
2018-08-23T20:09:52.507Z,52.94
2018-08-23T20:12:22.467Z,52.76
2018-08-23T20:14:52.599Z,52.57
2018-08-23T20:17:22.771Z,53.36
2018-08-23T20:19:53.471Z,53.30
2018-08-23T20:22:23.192Z,52.57
2018-08-23T20:24:52.932Z,52.55
2018-08-23T20:27:23.008Z,52.17
2018-08-23T20:29:53.452Z,52.66
2018-08-23T20:32:23.632Z,52.29
2018-08-23T20:34:53.707Z,52.39
2018-08-23T20:40:03.407Z,53.30
2018-08-23T20:42:33.210Z,52.50
2018-08-23T20:45:02.944Z,52.44
2018-08-23T20:47:32.693Z,52.19
2018-08-23T20:50:02.662Z,52.82
2018-08-23T20:52:32.443Z,52.90
2018-08-23T20:57:53.245Z,53.17
2018-08-23T21:00:22.947Z,52.84
2018-08-23T21:02:52.709Z,53.47
2018-08-23T21:05:22.395Z,53.61
2018-08-23T21:07:52.097Z,53.87
2018-08-23T21:10:21.828Z,53.02
2018-08-23T21:12:51.502Z,53.56
2018-08-23T21:15:21.568Z,52.72
2018-08-23T21:17:51.715Z,52.69
2018-08-23T21:20:21.729Z,53.15
2018-08-23T21:22:51.808Z,53.35
2018-08-23T21:25:21.898Z,53.07
2018-08-23T21:27:52.179Z,54.06
2018-08-23T21:30:21.920Z,53.18
2018-08-23T21:32:51.930Z,53.55
2018-08-23T21:35:21.678Z,54.49
2018-08-23T21:37:51.378Z,53.73
2018-08-23T21:40:21.453Z,54.43
2018-08-23T21:42:51.540Z,54.20
2018-08-23T21:45:21.344Z,54.79
2018-08-23T21:47:51.034Z,54.52
2018-08-23T21:50:21.154Z,54.98
2018-08-23T21:52:51.530Z,55.40
2018-08-23T21:55:25.539Z,55.25
2018-08-23T21:57:55.467Z,55.69
2018-08-23T22:00:25.152Z,55.70
2018-08-23T22:02:54.900Z,56.08
2018-08-23T22:05:24.987Z,55.91
2018-08-23T22:07:54.748Z,56.11
2018-08-23T22:10:24.760Z,56.66
2018-08-23T22:12:54.516Z,56.62
2018-08-23T22:15:24.299Z,56.14
2018-08-23T22:17:53.933Z,56.93
2018-08-23T22:20:23.674Z,56.16
2018-08-23T22:22:53.377Z,56.80
2018-08-23T22:25:23.113Z,56.94
2018-08-23T22:27:52.819Z,57.45
2018-08-23T22:30:22.533Z,57.23
2018-08-23T22:32:52.235Z,57.54
2018-08-23T22:35:21.984Z,57.84
2018-08-23T22:37:51.699Z,57.90
2018-08-23T22:40:21.445Z,58.19
2018-08-23T22:42:51.175Z,57.81
2018-08-23T22:45:20.921Z,57.84
2018-08-23T22:47:50.648Z,58.08
2018-08-23T22:50:20.368Z,57.80
2018-08-23T22:52:50.309Z,58.84
2018-08-23T22:55:20.413Z,58.38
2018-08-23T22:57:50.161Z,58.78
2018-08-23T23:00:24.294Z,58.26
2018-08-23T23:02:54.036Z,58.97
2018-08-23T23:05:23.839Z,58.69
2018-08-23T23:07:54.052Z,58.86
2018-08-23T23:10:23.748Z,60.63
2018-08-23T23:12:53.425Z,63.28
2018-08-23T23:15:26.348Z,65.65
2018-08-23T23:17:56.038Z,65.81
2018-08-23T23:20:26.433Z,68.03
2018-08-23T23:22:56.504Z,67.88
2018-08-23T23:25:26.983Z,67.92
2018-08-23T23:27:57.467Z,69.68
2018-08-23T23:30:27.229Z,69.42
2018-08-23T23:32:57.259Z,70.51
2018-08-23T23:35:27.360Z,71.44
2018-08-23T23:37:57.090Z,70.64
2018-08-23T23:40:26.779Z,72.69
2018-08-23T23:42:56.535Z,71.21
2018-08-23T23:45:26.220Z,72.77
2018-08-23T23:47:56.435Z,72.27
2018-08-23T23:50:26.423Z,72.02
2018-08-23T23:52:56.525Z,72.92
2018-08-23T23:55:26.234Z,72.59
2018-08-23T23:57:55.948Z,73.07
